Time;durP1;ratioP1;P1;durP2;ratioP2;P2;SDS_P1;SDS_P2;PMS_P1;PMS_P2;Temp;Humidity;BMP_temperature;BMP_pressure;BME280_temperature;BME280_humidity;BME280_pressure;Samples;Min_cycle;Max_cycle;Signal;HPM_P1;HPM_P2
2020/12/30 00:02:01;;;;;;;24.97;12.60;;;;;;;2.72;72.73;97590.86;2151614;83;21087;-75
2020/12/30 00:05:02;;;;;;;24.00;12.73;;;;;;;2.72;72.67;97584.84;2151946;82;21526;-75
2020/12/30 00:08:03;;;;;;;24.63;13.60;;;;;;;2.73;72.57;97585.30;2151810;82;21135;-76
2020/12/30 00:11:04;;;;;;;24.50;12.77;;;;;;;2.73;72.53;97595.60;2153039;82;21177;-76
2020/12/30 00:14:05;;;;;;;23.53;12.73;;;;;;;2.76;72.54;97600.83;2175047;82;21126;-76
2020/12/30 00:17:06;;;;;;;26.27;12.83;;;;;;;2.77;72.45;97585.39;2174536;82;21110;-76
2020/12/30 00:20:07;;;;;;;27.30;13.03;;;;;;;2.77;72.31;97583.23;2174832;82;21122;-76
2020/12/30 00:23:08;;;;;;;25.80;12.80;;;;;;;2.73;72.44;97581.42;2175198;81;21125;-76
2020/12/30 00:26:10;;;;;;;25.43;13.77;;;;;;;2.70;72.37;97587.39;2175050;82;21467;-76
2020/12/30 00:29:11;;;;;;;24.53;12.53;;;;;;;2.68;72.44;97598.49;2175108;82;21110;-76
2020/12/30 00:32:12;;;;;;;22.67;13.00;;;;;;;2.67;72.59;97598.91;2175151;82;21122;-76
2020/12/30 00:35:13;;;;;;;22.73;12.73;;;;;;;2.69;72.67;97596.37;2175342;82;21396;-76
2020/12/30 00:38:14;;;;;;;25.57;12.30;;;;;;;2.70;72.60;97598.11;2175155;82;21150;-76
2020/12/30 00:41:15;;;;;;;23.37;11.67;;;;;;;2.70;72.59;97598.11;2175493;81;21137;-76
2020/12/30 00:44:16;;;;;;;26.90;12.73;;;;;;;2.69;72.66;97589.92;2175228;82;21157;-76
2020/12/30 00:47:17;;;;;;;25.13;12.87;;;;;;;2.71;72.77;97598.14;2175088;82;21118;-76
2020/12/30 00:50:18;;;;;;;25.57;12.00;;;;;;;2.75;72.80;97599.08;2175017;82;21198;-76
2020/12/30 00:53:19;;;;;;;23.10;12.37;;;;;;;2.73;72.71;97593.89;2175089;81;21376;-76
2020/12/30 00:56:21;;;;;;;26.17;13.57;;;;;;;2.73;72.88;97594.31;2174993;81;21361;-75
2020/12/30 00:59:22;;;;;;;25.33;12.90;;;;;;;2.76;72.95;97593.09;2175263;82;21126;-77
2020/12/30 01:02:23;;;;;;;18.23;10.23;;;;;;;2.79;73.27;97604.34;2175262;82;21126;-76
2020/12/30 01:05:24;;;;;;;19.63;11.07;;;;;;;4.28;79.44;97588.34;2174059;82;21157;-76
2020/12/30 01:08:25;;;;;;;24.97;11.37;;;;;;;4.66;73.64;97588.97;2174782;81;21150;-76
2020/12/30 01:11:26;;;;;;;31.00;13.53;;;;;;;4.50;72.97;97586.13;2174588;80;21495;-77
2020/12/30 01:14:27;;;;;;;27.13;9.17;;;;;;;4.37;73.38;97584.64;2174715;82;21361;-76
2020/12/30 01:17:28;;;;;;;17.60;7.30;;;;;;;4.38;74.04;97579.92;2174557;82;21110;-77
2020/12/30 01:20:30;;;;;;;15.43;7.10;;;;;;;4.46;74.28;97583.50;2174840;82;21086;-78
2020/12/30 01:23:31;;;;;;;7.90;4.60;;;;;;;4.54;74.67;97588.78;2175068;82;21134;-78
2020/12/30 01:26:32;;;;;;;11.50;3.87;;;;;;;4.61;74.94;97588.03;2175341;82;21421;-78
2020/12/30 01:29:33;;;;;;;10.37;4.63;;;;;;;4.73;75.11;97591.22;2174387;82;21103;-77
2020/12/30 01:32:34;;;;;;;12.50;6.30;;;;;;;4.82;75.71;97586.18;2174144;82;21146;-78
2020/12/30 01:35:35;;;;;;;12.40;6.70;;;;;;;4.84;75.96;97570.69;2174941;82;21090;-76
2020/12/30 01:38:36;;;;;;;11.70;6.93;;;;;;;4.86;76.03;97565.98;2175707;82;21144;-76
2020/12/30 01:41:37;;;;;;;10.60;6.13;;;;;;;4.88;75.79;97582.39;2175096;82;21110;-77
2020/12/30 01:44:39;;;;;;;12.63;6.40;;;;;;;4.95;75.73;97585.50;2175295;82;21173;-77
2020/12/30 01:47:40;;;;;;;15.47;6.17;;;;;;;4.95;75.73;97585.50;2175270;82;21134;-79
2020/12/30 01:50:41;;;;;;;4.73;2.87;;;;;;;4.97;75.82;97607.51;2175983;82;21122;-78
2020/12/30 01:53:42;;;;;;;3.60;2.80;;;;;;;5.00;75.85;97611.00;2175421;82;21122;-77
2020/12/30 01:56:46;;;;;;;7.03;3.43;;;;;;;5.08;75.88;97604.22;2175440;82;21091;-77
2020/12/30 01:59:47;;;;;;;10.70;3.30;;;;;;;5.14;75.93;97620.25;2175705;82;21168;-78
2020/12/30 02:02:50;;;;;;;12.87;3.43;;;;;;;5.19;76.04;97612.55;2175264;82;21075;-78
2020/12/30 02:05:51;;;;;;;6.37;3.60;;;;;;;5.23;76.32;97604.01;2175200;82;21150;-77
2020/12/30 02:08:56;;;;;;;6.57;3.53;;;;;;;5.26;76.38;97621.73;2175145;82;21134;-77
2020/12/30 02:11:57;;;;;;;6.50;4.30;;;;;;;5.26;76.56;97617.85;2175417;82;21377;-77
2020/12/30 02:15:01;;;;;;;7.20;3.90;;;;;;;5.26;76.55;97616.56;2175220;81;21079;-77
2020/12/30 02:18:02;;;;;;;4.80;3.10;;;;;;;5.30;76.78;97613.59;2175400;82;21122;-77
2020/12/30 02:21:06;;;;;;;5.43;3.00;;;;;;;5.28;76.92;97599.34;2175314;81;21125;-77
2020/12/30 02:24:07;;;;;;;4.25;2.87;;;;;;;5.28;77.07;97604.52;2175153;82;21460;-77
2020/12/30 02:27:10;;;;;;;4.20;3.10;;;;;;;5.29;76.91;97605.38;2175735;81;21122;-78
2020/12/30 02:30:12;;;;;;;3.63;2.33;;;;;;;5.29;77.12;97600.20;2175538;81;21093;-77
2020/12/30 02:33:13;;;;;;;2.80;2.20;;;;;;;5.28;77.53;97590.28;2175847;82;21126;-78
2020/12/30 02:36:14;;;;;;;5.70;2.30;;;;;;;5.28;78.05;97593.30;2175613;81;21118;-78
2020/12/30 02:39:15;;;;;;;4.70;2.60;;;;;;;5.26;77.85;97602.33;2175352;82;21125;-78
2020/12/30 02:42:16;;;;;;;6.60;2.87;;;;;;;5.27;77.77;97608.37;2175174;82;21114;-77
2020/12/30 02:45:17;;;;;;;3.33;2.30;;;;;;;5.29;77.89;97620.48;2175237;82;21456;-77
2020/12/30 02:48:18;;;;;;;4.23;2.57;;;;;;;5.32;78.02;97613.19;2175221;81;21090;-78
2020/12/30 02:51:19;;;;;;;3.67;2.17;;;;;;;5.33;78.25;97597.67;2175081;81;21126;-77
2020/12/30 02:54:20;;;;;;;6.77;2.50;;;;;;;5.33;78.25;97597.67;2174885;81;21130;-76
2020/12/30 02:57:21;;;;;;;7.43;2.40;;;;;;;5.34;77.93;97607.60;2174539;82;21244;-77
2020/12/30 03:00:22;;;;;;;3.60;2.47;;;;;;;5.33;77.88;97616.22;2174978;82;21094;-77
2020/12/30 03:03:25;;;;;;;3.90;2.70;;;;;;;5.32;77.87;97626.12;2174799;82;21404;-77
2020/12/30 03:06:26;;;;;;;3.80;2.30;;;;;;;5.38;77.97;97615.42;2175185;82;21137;-77
2020/12/30 03:09:27;;;;;;;18.17;5.13;;;;;;;5.43;78.08;97602.54;2175307;80;21122;-77
2020/12/30 03:12:28;;;;;;;4.13;2.37;;;;;;;5.46;78.41;97607.75;2174560;82;21126;-78
2020/12/30 03:15:29;;;;;;;3.13;2.20;;;;;;;5.46;78.11;97609.05;2174842;82;21122;-78
2020/12/30 03:18:30;;;;;;;3.67;2.50;;;;;;;5.48;77.91;97609.94;2175868;81;21118;-78
2020/12/30 03:21:31;;;;;;;5.83;2.40;;;;;;;5.49;77.75;97600.45;2175806;81;21110;-77
2020/12/30 03:24:33;;;;;;;5.17;2.50;;;;;;;5.50;77.77;97595.30;2175846;82;21134;-78
2020/12/30 03:27:34;;;;;;;7.90;3.40;;;;;;;5.54;77.82;97599.66;2175499;81;21514;-77
2020/12/30 03:30:35;;;;;;;64.83;17.10;;;;;;;5.56;77.69;97591.48;2175336;82;21134;-77
2020/12/30 03:33:36;;;;;;;82.40;22.40;;;;;;;5.59;77.62;97593.23;2175796;81;21400;-78
2020/12/30 03:36:37;;;;;;;103.47;28.60;;;;;;;5.61;77.38;97588.94;2175576;81;21146;-78
2020/12/30 03:39:38;;;;;;;44.63;12.60;;;;;;;5.58;77.03;97592.36;2175837;81;21145;-77
2020/12/30 03:42:39;;;;;;;66.90;22.20;;;;;;;5.55;77.18;97583.27;2175548;81;21138;-78
2020/12/30 03:45:40;;;;;;;72.77;22.00;;;;;;;5.55;77.12;97579.81;2175268;81;21185;-78
2020/12/30 03:48:42;;;;;;;42.70;15.27;;;;;;;5.49;77.24;97581.91;2175939;81;21130;-77
2020/12/30 03:51:43;;;;;;;15.87;5.87;;;;;;;5.51;77.33;97584.09;2175556;82;21110;-77
2020/12/30 03:54:44;;;;;;;6.47;3.30;;;;;;;5.48;77.10;97580.17;2175342;82;21125;-77
2020/12/30 03:57:45;;;;;;;5.27;2.63;;;;;;;5.44;76.95;97591.34;2175422;82;21114;-77
2020/12/30 04:00:46;;;;;;;3.40;2.40;;;;;;;5.42;76.96;97585.27;2175182;82;21113;-77
2020/12/30 04:03:47;;;;;;;4.90;2.57;;;;;;;5.41;76.98;97592.59;2175382;81;21114;-78
2020/12/30 04:06:49;;;;;;;6.63;3.27;;;;;;;5.37;76.99;97603.76;2175376;82;21092;-78
2020/12/30 04:09:51;;;;;;;5.90;3.47;;;;;;;5.34;77.25;97612.36;2179122;79;21211;-78
2020/12/30 04:12:52;;;;;;;5.63;3.40;;;;;;;5.33;77.71;97611.91;2184227;81;21118;-78
2020/12/30 04:15:54;;;;;;;4.90;3.17;;;;;;;5.33;77.84;97612.33;2176281;82;21144;-78
2020/12/30 04:18:55;;;;;;;5.30;3.47;;;;;;;5.33;78.04;97612.33;2175933;82;21122;-78
2020/12/30 04:21:56;;;;;;;7.73;3.70;;;;;;;5.30;78.71;97602.81;2175707;82;21122;-77
2020/12/30 04:24:57;;;;;;;5.53;3.70;;;;;;;5.29;78.42;97604.09;2175830;82;21424;-76
2020/12/30 04:27:58;;;;;;;5.97;3.70;;;;;;;5.27;78.22;97608.37;2175858;82;21134;-80
2020/12/30 04:30:59;;;;;;;9.43;4.97;;;;;;;5.21;78.74;97598.81;2175965;82;21122;-79
2020/12/30 04:34:00;;;;;;;7.43;4.27;;;;;;;5.18;78.54;97599.17;2175393;82;21411;-77
2020/12/30 04:37:02;;;;;;;7.30;4.67;;;;;;;5.26;79.24;97599.74;2175739;82;21126;-78
2020/12/30 04:40:03;;;;;;;6.60;4.50;;;;;;;5.26;79.24;97599.74;2175076;82;21153;-78
2020/12/30 04:43:04;;;;;;;6.97;4.00;;;;;;;5.24;78.58;97579.88;2175275;82;21118;-77
2020/12/30 04:46:05;;;;;;;8.10;5.03;;;;;;;5.24;78.58;97579.88;2174263;82;21552;-78
2020/12/30 04:49:06;;;;;;;7.83;4.70;;;;;;;5.23;78.70;97579.43;2173859;82;21122;-78
2020/12/30 04:52:07;;;;;;;9.23;4.93;;;;;;;5.22;78.69;97585.45;2173307;82;21257;-78
2020/12/30 04:55:08;;;;;;;9.77;5.23;;;;;;;5.22;78.54;97586.75;2173415;82;21732;-78
2020/12/30 04:58:09;;;;;;;6.03;4.27;;;;;;;5.22;78.54;97586.75;2173005;82;21118;-76
2020/12/30 05:01:10;;;;;;;5.70;4.03;;;;;;;5.22;78.69;97586.33;2172381;82;21257;-77
2020/12/30 05:04:12;;;;;;;6.50;4.40;;;;;;;5.25;78.60;97585.07;2171607;82;21284;-76
2020/12/30 05:07:13;;;;;;;9.80;4.40;;;;;;;5.24;78.38;97587.64;2172191;82;21589;-77
2020/12/30 05:10:14;;;;;;;5.67;3.40;;;;;;;5.24;78.38;97587.64;2169752;81;21285;-78
2020/12/30 05:13:15;;;;;;;6.77;4.40;;;;;;;5.33;82.80;97578.27;2149173;83;21253;-77
2020/12/30 05:16:16;;;;;;;6.87;4.67;;;;;;;6.37;79.11;97575.07;2149476;82;21719;-78
2020/12/30 05:19:17;;;;;;;7.10;4.83;;;;;;;6.13;77.43;97580.47;2149593;82;21196;-78
2020/12/30 05:22:18;;;;;;;8.80;4.50;;;;;;;5.90;77.07;97571.16;2150290;83;21135;-78
2020/12/30 05:25:19;;;;;;;9.27;5.53;;;;;;;6.39;86.58;97575.95;2149899;82;21282;-78
2020/12/30 05:28:21;;;;;;;7.33;4.57;;;;;;;6.88;77.48;97581.48;2149616;82;21265;-78
2020/12/30 05:31:23;;;;;;;7.60;5.00;;;;;;;6.54;76.27;97589.89;2149827;82;21250;-77
2020/12/30 05:34:24;;;;;;;8.63;5.07;;;;;;;6.18;76.14;97593.05;2149863;82;21115;-77
2020/12/30 05:37:25;;;;;;;15.00;11.37;;;;;;;5.92;76.43;97604.41;2150236;82;21096;-78
2020/12/30 05:40:26;;;;;;;13.10;9.07;;;;;;;5.76;76.63;97608.11;2150497;82;21131;-80
2020/12/30 05:43:27;;;;;;;8.33;5.03;;;;;;;5.69;76.65;97612.77;2150340;82;21111;-78
2020/12/30 05:46:29;;;;;;;10.23;4.50;;;;;;;5.65;76.98;97616.17;2149756;82;21175;-80
2020/12/30 05:49:30;;;;;;;12.10;5.63;;;;;;;5.57;76.93;97629.45;2151511;83;21138;-80
2020/12/30 05:52:31;;;;;;;7.90;5.27;;;;;;;5.49;76.93;97629.79;2150043;82;21111;-79
2020/12/30 05:55:32;;;;;;;8.97;6.00;;;;;;;5.60;77.29;97632.08;2150800;82;21142;-80
2020/12/30 05:58:33;;;;;;;6.60;5.00;;;;;;;5.59;77.16;97629.05;2150516;82;21134;-78
2020/12/30 06:01:35;;;;;;;9.10;5.80;;;;;;;5.54;77.25;97629.42;2150008;82;21123;-75
2020/12/30 06:04:36;;;;;;;6.97;4.57;;;;;;;5.46;77.19;97627.16;2149041;82;21306;-75
2020/12/30 06:07:37;;;;;;;10.47;4.83;;;;;;;5.36;77.26;97632.65;2148724;82;21817;-75
2020/12/30 06:10:38;;;;;;;7.93;5.13;;;;;;;5.32;77.44;97636.47;2155159;81;21276;-75
2020/12/30 06:13:40;;;;;;;7.00;4.60;;;;;;;5.25;77.48;97628.19;2185068;81;21294;-75
2020/12/30 06:16:41;;;;;;;8.57;5.17;;;;;;;5.19;77.64;97612.55;2184964;81;21243;-75
2020/12/30 06:19:42;;;;;;;7.57;5.17;;;;;;;5.17;77.74;97611.66;2184773;81;21105;-75
2020/12/30 06:22:44;;;;;;;10.90;6.03;;;;;;;5.15;77.80;97605.17;2184281;81;21497;-76
2020/12/30 06:25:45;;;;;;;16.63;6.23;;;;;;;5.13;77.79;97602.98;2179015;81;21275;-76
2020/12/30 06:28:46;;;;;;;11.10;5.57;;;;;;;5.12;77.86;97600.83;2172310;82;21256;-76
2020/12/30 06:31:47;;;;;;;8.27;5.60;;;;;;;5.16;77.80;97604.75;2172233;82;21413;-75
2020/12/30 06:34:48;;;;;;;10.17;5.40;;;;;;;5.16;77.68;97610.79;2172833;82;21451;-75
2020/12/30 06:37:49;;;;;;;11.40;5.40;;;;;;;5.13;77.54;97617.22;2172559;82;21788;-76
2020/12/30 06:40:50;;;;;;;6.70;5.27;;;;;;;5.12;77.58;97604.70;2171941;82;21310;-76
2020/12/30 06:43:52;;;;;;;15.50;8.70;;;;;;;5.12;77.58;97604.70;2171669;82;21280;-75
2020/12/30 06:46:53;;;;;;;8.17;6.10;;;;;;;5.12;77.81;97606.42;2171472;82;21519;-75
2020/12/30 06:49:54;;;;;;;48.33;23.50;;;;;;;5.07;77.61;97611.95;2171809;82;21106;-76
2020/12/30 06:52:55;;;;;;;43.37;19.00;;;;;;;5.07;77.61;97611.95;2172447;82;21245;-76
2020/12/30 06:55:56;;;;;;;18.00;10.00;;;;;;;5.06;77.68;97608.50;2172985;82;21122;-76
2020/12/30 06:58:57;;;;;;;15.27;8.23;;;;;;;5.01;77.58;97623.09;2172588;82;21154;-75
2020/12/30 07:01:58;;;;;;;8.03;5.23;;;;;;;5.00;77.74;97620.05;2171784;82;21244;-75
2020/12/30 07:05:00;;;;;;;30.27;17.23;;;;;;;4.92;77.78;97607.87;2171298;82;21865;-76
2020/12/30 07:08:01;;;;;;;16.17;7.03;;;;;;;4.92;77.78;97607.87;2172612;82;21269;-75
2020/12/30 07:11:03;;;;;;;8.43;5.50;;;;;;;4.93;77.96;97617.36;2168649;81;21336;-75
2020/12/30 07:14:04;;;;;;;9.47;5.20;;;;;;;4.93;77.96;97617.36;2150005;82;21238;-75
2020/12/30 07:17:05;;;;;;;8.67;5.40;;;;;;;4.95;77.90;97612.66;2148341;82;21108;-76
2020/12/30 07:20:06;;;;;;;11.20;6.13;;;;;;;4.96;77.69;97609.22;2148124;83;21416;-75
2020/12/30 07:23:07;;;;;;;9.73;5.83;;;;;;;4.96;77.69;97609.22;2148580;83;21253;-76
2020/12/30 07:26:08;;;;;;;8.70;5.43;;;;;;;4.99;77.77;97616.16;2147979;83;21297;-75
2020/12/30 07:29:09;;;;;;;10.10;5.67;;;;;;;4.97;77.71;97612.25;2147459;83;21577;-75
2020/12/30 07:32:10;;;;;;;11.77;6.10;;;;;;;4.99;77.79;97606.68;2147941;82;21111;-76
2020/12/30 07:35:11;;;;;;;11.37;6.13;;;;;;;5.02;77.80;97602.84;2148296;82;21261;-76
2020/12/30 07:38:12;;;;;;;7.50;5.87;;;;;;;5.03;77.71;97599.41;2148818;82;21230;-75
2020/12/30 07:41:13;;;;;;;10.77;6.03;;;;;;;5.05;77.65;97601.59;2149351;82;21135;-76
2020/12/30 07:44:14;;;;;;;11.77;7.17;;;;;;;5.08;77.62;97590.00;2148606;82;21178;-75
2020/12/30 07:47:15;;;;;;;7.73;5.83;;;;;;;5.12;77.72;97598.23;2148885;83;21265;-76
2020/12/30 07:50:17;;;;;;;9.17;5.73;;;;;;;5.11;77.46;97602.09;2148105;83;21241;-78
2020/12/30 07:53:21;;;;;;;7.17;5.17;;;;;;;5.12;77.47;97607.29;2147980;83;21250;-77
2020/12/30 07:56:22;;;;;;;10.77;5.87;;;;;;;5.11;77.43;97609.44;2147875;83;21258;-76
2020/12/30 07:59:23;;;;;;;8.67;6.13;;;;;;;5.09;77.34;97609.84;2148837;83;21285;-76
2020/12/30 08:02:24;;;;;;;9.90;6.40;;;;;;;5.13;77.45;97616.79;2148002;83;21234;-76
2020/12/30 08:05:25;;;;;;;12.90;7.00;;;;;;;5.16;77.45;97608.63;2149271;82;21285;-77
2020/12/30 08:08:26;;;;;;;9.53;6.43;;;;;;;5.16;77.50;97608.63;2148740;82;21119;-76
2020/12/30 08:11:27;;;;;;;74.57;47.30;;;;;;;5.15;77.40;97605.59;2148778;82;21289;-76
2020/12/30 08:14:28;;;;;;;14.63;7.47;;;;;;;5.13;77.37;97606.45;2149495;82;21254;-76
2020/12/30 08:17:29;;;;;;;10.10;6.07;;;;;;;5.15;77.40;97610.34;2149047;82;21232;-75
2020/12/30 08:20:31;;;;;;;9.97;6.70;;;;;;;5.18;77.47;97607.80;2148840;82;21111;-76
2020/12/30 08:23:32;;;;;;;10.40;6.63;;;;;;;5.17;77.32;97602.18;2149551;82;21242;-79
2020/12/30 08:26:33;;;;;;;10.27;7.00;;;;;;;5.18;77.46;97598.74;2149962;82;21273;-79
2020/12/30 08:29:34;;;;;;;9.63;6.50;;;;;;;5.15;77.44;97605.59;2150308;82;21143;-80
2020/12/30 08:32:35;;;;;;;12.00;7.33;;;;;;;5.15;77.48;97602.58;2149403;82;21140;-79
2020/12/30 08:35:36;;;;;;;13.03;6.87;;;;;;;5.12;77.61;97606.00;2148821;82;21802;-80
2020/12/30 08:38:37;;;;;;;11.70;7.40;;;;;;;5.10;77.57;97602.95;2149955;82;21304;-79
2020/12/30 08:41:38;;;;;;;9.67;6.90;;;;;;;5.11;77.64;97602.97;2150248;82;21135;-82
2020/12/30 08:44:39;;;;;;;8.47;6.57;;;;;;;5.11;77.64;97604.69;2149682;82;21154;-80
2020/12/30 08:47:40;;;;;;;13.57;7.20;;;;;;;5.17;77.51;97593.55;2149126;82;21258;-80
2020/12/30 08:50:41;;;;;;;13.63;7.80;;;;;;;5.17;77.51;97605.19;2148917;82;21249;-79
2020/12/30 08:53:42;;;;;;;8.27;6.63;;;;;;;5.21;77.69;97596.23;2148961;82;21241;-80
2020/12/30 08:56:44;;;;;;;10.77;6.80;;;;;;;5.21;77.69;97596.23;2150124;83;21242;-79
2020/12/30 08:59:45;;;;;;;11.50;7.93;;;;;;;5.24;77.40;97609.20;2148963;83;21126;-79
2020/12/30 09:02:46;;;;;;;23.90;14.90;;;;;;;5.24;77.40;97609.20;2149491;82;21246;-81
2020/12/30 09:05:47;;;;;;;14.37;8.27;;;;;;;5.26;77.32;97606.64;2148923;83;21285;-79
2020/12/30 09:08:48;;;;;;;14.43;8.60;;;;;;;5.26;77.32;97606.64;2148218;83;21135;-79
2020/12/30 09:11:49;;;;;;;13.93;8.10;;;;;;;5.26;77.44;97602.75;2149626;82;21175;-80
2020/12/30 09:14:50;;;;;;;12.23;8.40;;;;;;;5.28;77.36;97598.47;2149554;83;21119;-79
2020/12/30 09:17:51;;;;;;;12.33;8.30;;;;;;;5.33;77.43;97603.28;2149998;82;21115;-79
2020/12/30 09:20:52;;;;;;;14.40;8.70;;;;;;;5.43;77.29;97605.13;2149517;83;21126;-79
2020/12/30 09:23:54;;;;;;;12.60;8.70;;;;;;;5.49;77.11;97611.67;2148758;83;21127;-79
2020/12/30 09:26:55;;;;;;;13.73;10.00;;;;;;;5.59;77.01;97617.41;2149297;83;21226;-78
2020/12/30 09:29:56;;;;;;;13.43;9.53;;;;;;;5.66;76.70;97616.63;2149465;82;21442;-79
2020/12/30 09:32:57;;;;;;;17.67;11.23;;;;;;;5.75;76.60;97608.95;2149790;82;21254;-79
2020/12/30 09:35:58;;;;;;;16.43;11.07;;;;;;;5.84;76.37;97606.02;2149516;82;21119;-79
2020/12/30 09:38:59;;;;;;;15.40;10.93;;;;;;;5.90;76.29;97615.19;2149015;83;21823;-79
2020/12/30 09:42:01;;;;;;;12.97;10.33;;;;;;;5.98;76.31;97620.02;2149127;83;21139;-79
2020/12/30 09:45:02;;;;;;;15.60;9.77;;;;;;;6.01;76.19;97622.64;2149789;82;21282;-79
2020/12/30 09:48:03;;;;;;;20.07;10.77;;;;;;;5.99;75.91;97610.10;2149062;83;21143;-79
2020/12/30 09:51:04;;;;;;;12.57;10.70;;;;;;;5.97;76.01;97599.72;2148930;83;21123;-78
2020/12/30 09:54:05;;;;;;;15.77;10.60;;;;;;;5.91;75.91;97602.68;2149217;83;21221;-78
2020/12/30 09:57:06;;;;;;;14.73;10.97;;;;;;;5.89;75.89;97606.94;2148906;83;21515;-79
2020/12/30 10:00:23;;;;;;;14.43;10.97;;;;;;;5.89;75.93;97613.41;2148380;82;21142;-78
2020/12/30 10:03:24;;;;;;;20.37;12.57;;;;;;;5.88;75.89;97620.31;2149475;83;21143;-79
2020/12/30 10:06:26;;;;;;;21.90;14.70;;;;;;;5.86;75.90;97621.16;2149565;83;21114;-79
2020/12/30 10:09:27;;;;;;;21.90;14.60;;;;;;;5.86;75.93;97621.16;2149235;83;21134;-79
2020/12/30 10:12:28;;;;;;;21.97;14.97;;;;;;;5.86;75.99;97619.86;2149717;82;21123;-79
2020/12/30 10:15:30;;;;;;;25.60;16.07;;;;;;;5.84;75.89;97626.31;2150616;82;21142;-79
2020/12/30 10:18:31;;;;;;;25.80;15.20;;;;;;;5.84;75.94;97615.09;2149765;83;21462;-80
2020/12/30 10:21:32;;;;;;;19.37;14.10;;;;;;;5.86;76.00;97612.95;2150171;82;21583;-80
2020/12/30 10:24:33;;;;;;;20.43;13.63;;;;;;;5.90;75.96;97622.95;2150710;82;21155;-80
2020/12/30 10:27:34;;;;;;;22.90;15.17;;;;;;;5.92;76.03;97618.23;2150377;83;21254;-79
2020/12/30 10:30:35;;;;;;;21.23;13.83;;;;;;;5.96;76.05;97613.95;2150135;83;21706;-81
2020/12/30 10:33:36;;;;;;;20.00;13.87;;;;;;;6.01;76.16;97615.73;2149712;82;21091;-79
2020/12/30 10:36:37;;;;;;;19.50;14.00;;;;;;;6.08;75.97;97608.06;2149611;82;21230;-79
2020/12/30 10:39:38;;;;;;;21.20;13.43;;;;;;;6.09;75.88;97604.19;2149916;82;21441;-79
2020/12/30 10:42:39;;;;;;;21.13;13.90;;;;;;;6.10;75.76;97598.16;2149849;82;21123;-79
2020/12/30 10:45:41;;;;;;;21.80;13.30;;;;;;;6.14;75.79;97599.05;2149439;83;21127;-79
2020/12/30 10:48:42;;;;;;;17.80;13.10;;;;;;;6.13;75.62;97599.48;2149557;82;21155;-79
2020/12/30 10:51:43;;;;;;;24.13;13.77;;;;;;;6.17;75.69;97588.72;2149725;83;21084;-80
2020/12/30 10:54:44;;;;;;;21.87;13.83;;;;;;;6.14;75.62;97583.08;2149608;82;21128;-79
2020/12/30 10:57:45;;;;;;;24.37;13.93;;;;;;;6.18;75.98;97580.95;2149870;82;21144;-79
2020/12/30 11:00:46;;;;;;;19.77;14.37;;;;;;;6.24;75.79;97577.55;2150685;82;21095;-79
2020/12/30 11:03:47;;;;;;;23.30;15.10;;;;;;;6.24;75.64;97571.94;2149720;83;21261;-79
2020/12/30 11:06:48;;;;;;;25.67;15.70;;;;;;;6.23;75.78;97570.63;2149776;83;21293;-79
2020/12/30 11:09:50;;;;;;;21.57;14.67;;;;;;;6.25;76.04;97563.73;2148858;83;21147;-78
2020/12/30 11:12:51;;;;;;;23.50;13.57;;;;;;;6.26;76.08;97569.36;2157441;82;21269;-78
2020/12/30 11:15:52;;;;;;;20.23;13.43;;;;;;;6.27;76.01;97566.78;2166386;82;21248;-79
2020/12/30 11:18:53;;;;;;;18.23;14.37;;;;;;;6.30;75.96;97564.22;2166695;82;21226;-79
2020/12/30 11:21:56;;;;;;;21.13;14.60;;;;;;;6.27;76.07;97559.44;2167375;82;21232;-79
2020/12/30 11:24:57;;;;;;;20.73;14.37;;;;;;;6.24;76.15;97557.69;2168399;82;21130;-80
2020/12/30 11:28:01;;;;;;;25.53;14.93;;;;;;;6.24;76.15;97557.69;2171071;81;21716;-79
2020/12/30 11:31:01;;;;;;;22.13;14.97;;;;;;;6.26;76.06;97544.74;2174077;81;21125;-80
2020/12/30 11:34:03;;;;;;;28.40;15.07;;;;;;;6.26;76.06;97544.74;2173376;82;21086;-78
2020/12/30 11:37:04;;;;;;;32.07;21.57;;;;;;;6.30;76.16;97538.73;2173170;82;21122;-78
2020/12/30 11:40:05;;;;;;;111.47;79.43;;;;;;;6.31;76.30;97540.03;2173298;82;21130;-80
2020/12/30 11:43:06;;;;;;;29.40;16.10;;;;;;;6.33;76.25;97542.64;2173394;82;21082;-80
2020/12/30 11:46:07;;;;;;;22.93;16.07;;;;;;;6.29;76.55;97537.86;2173142;82;21265;-80
2020/12/30 11:49:08;;;;;;;25.13;15.17;;;;;;;6.29;76.55;97537.86;2173467;82;21816;-80
2020/12/30 11:52:09;;;;;;;23.50;14.90;;;;;;;6.29;76.24;97545.63;2173492;82;21142;-79
2020/12/30 11:55:10;;;;;;;22.90;14.97;;;;;;;6.25;76.35;97547.77;2173271;82;21256;-79
2020/12/30 11:58:11;;;;;;;26.30;15.67;;;;;;;6.21;76.42;97543.41;2173822;82;21162;-79
2020/12/30 12:01:12;;;;;;;29.30;15.70;;;;;;;6.19;76.48;97542.53;2174062;82;21095;-80
2020/12/30 12:04:13;;;;;;;25.13;16.17;;;;;;;6.17;76.53;97544.23;2173587;82;21126;-79
2020/12/30 12:07:15;;;;;;;24.70;16.27;;;;;;;6.19;76.50;97552.02;2173760;82;21808;-79
2020/12/30 12:10:18;;;;;;;26.00;17.40;;;;;;;6.19;76.50;97550.73;2174085;82;21142;-78
2020/12/30 12:13:19;;;;;;;29.23;16.93;;;;;;;6.17;76.61;97552.44;2161215;81;21119;-79
2020/12/30 12:16:21;;;;;;;26.40;16.37;;;;;;;6.17;76.58;97556.33;2149378;83;21167;-78
2020/12/30 12:19:22;;;;;;;25.57;16.40;;;;;;;6.13;76.66;97554.14;2149117;82;21185;-79
2020/12/30 12:22:23;;;;;;;26.83;17.47;;;;;;;6.08;76.95;97550.64;2149888;82;21445;-78
2020/12/30 12:25:24;;;;;;;27.97;17.47;;;;;;;6.09;77.39;97552.38;2149845;83;21163;-78
2020/12/30 12:28:25;;;;;;;29.10;18.13;;;;;;;6.13;77.25;97559.31;2150542;82;21087;-78
2020/12/30 12:31:26;;;;;;;41.07;25.23;;;;;;;6.13;77.25;97559.31;2150169;82;21103;-79
2020/12/30 12:34:27;;;;;;;30.80;17.93;;;;;;;6.13;77.34;97562.34;2150090;82;21253;-78
2020/12/30 12:37:28;;;;;;;36.20;22.63;;;;;;;6.11;77.33;97568.80;2150966;82;21091;-78
2020/12/30 12:40:29;;;;;;;35.60;23.70;;;;;;;6.07;77.35;97567.04;2150533;82;21430;-78
2020/12/30 12:43:31;;;;;;;39.13;23.90;;;;;;;6.06;77.41;97564.84;2150271;82;21130;-78
2020/12/30 12:46:32;;;;;;;41.93;25.03;;;;;;;6.08;77.44;97566.19;2150215;83;21297;-78
2020/12/30 12:49:33;;;;;;;44.50;26.00;;;;;;;6.11;77.48;97574.41;2150565;82;21119;-78
2020/12/30 12:52:34;;;;;;;44.40;26.03;;;;;;;6.10;77.50;97578.72;2150193;82;21111;-78
2020/12/30 12:55:35;;;;;;;41.03;25.13;;;;;;;6.10;77.50;97583.91;2150349;82;21242;-78
2020/12/30 12:58:36;;;;;;;50.77;29.80;;;;;;;6.01;77.46;97587.67;2149206;82;21567;-80
2020/12/30 13:01:40;;;;;;;37.80;22.90;;;;;;;5.94;77.82;97591.05;2149229;82;21111;-78
2020/12/30 13:04:41;;;;;;;24.60;15.57;;;;;;;5.94;77.82;97591.05;2147869;82;22139;-79
2020/12/30 13:07:42;;;;;;;16.90;10.20;;;;;;;5.92;77.65;97591.47;2147261;83;21237;-78
2020/12/30 13:10:43;;;;;;;16.03;10.17;;;;;;;5.91;77.53;97584.55;2147115;82;21233;-78
2020/12/30 13:13:44;;;;;;;15.97;10.47;;;;;;;5.87;77.55;97593.11;2163557;81;21677;-79
2020/12/30 13:16:46;;;;;;;16.00;9.43;;;;;;;5.84;77.61;97603.44;2171950;82;21722;-79
2020/12/30 13:19:47;;;;;;;14.33;10.13;;;;;;;5.83;77.71;97601.70;2171856;82;21244;-80
2020/12/30 13:22:48;;;;;;;23.47;12.07;;;;;;;5.79;77.76;97599.50;2172369;82;21260;-79
2020/12/30 13:25:49;;;;;;;20.13;11.47;;;;;;;5.75;77.86;97608.09;2173462;82;21416;-79
2020/12/30 13:28:50;;;;;;;21.63;12.40;;;;;;;5.71;77.82;97603.30;2173025;82;21863;-80
2020/12/30 13:31:51;;;;;;;19.60;11.97;;;;;;;5.69;77.81;97607.59;2172915;82;21253;-79
2020/12/30 13:34:52;;;;;;;14.57;10.33;;;;;;;5.62;77.87;97610.97;2172546;82;21241;-79
2020/12/30 13:37:53;;;;;;;15.43;8.47;;;;;;;5.52;77.26;97614.30;2173408;82;21237;-79
2020/12/30 13:40:54;;;;;;;13.97;9.17;;;;;;;5.42;76.97;97615.91;2172895;82;21146;-79
2020/12/30 13:43:55;;;;;;;19.13;10.70;;;;;;;5.36;77.42;97613.66;2173048;82;21257;-80
2020/12/30 13:46:56;;;;;;;14.27;9.27;;;;;;;5.34;77.57;97621.83;2172391;82;21277;-81
2020/12/30 13:49:58;;;;;;;16.67;10.50;;;;;;;5.37;77.76;97625.33;2173895;82;21240;-80
2020/12/30 13:52:59;;;;;;;18.13;10.43;;;;;;;5.40;77.83;97621.48;2173224;82;21237;-76
2020/12/30 13:56:00;;;;;;;16.70;10.40;;;;;;;5.45;77.71;97617.66;2173209;82;21408;-76
2020/12/30 13:59:01;;;;;;;23.93;11.90;;;;;;;5.44;77.38;97618.52;2172366;82;21158;-75
2020/12/30 14:02:03;;;;;;;23.07;13.57;;;;;;;5.44;77.33;97617.22;2172946;82;21276;-76
2020/12/30 14:05:04;;;;;;;22.10;13.67;;;;;;;5.40;77.50;97618.90;2170484;82;21893;-76
2020/12/30 14:08:05;;;;;;;19.57;12.03;;;;;;;5.41;77.53;97621.93;2169567;82;21289;-76
2020/12/30 14:11:06;;;;;;;19.23;12.87;;;;;;;5.39;77.66;97626.22;2171755;82;21580;-76